Time;durP1;ratioP1;P1;durP2;ratioP2;P2;SDS_P1;SDS_P2;PMS_P1;PMS_P2;Temp;Humidity;BMP_temperature;BMP_pressure;BME280_temperature;BME280_humidity;BME280_pressure;Samples;Min_cycle;Max_cycle;Signal;HPM_P1;HPM_P2
2023/05/31 00:00:17;;;;;;;9.38;4.82;;;9.50;99.90;;;;;;4974250;28;20474;-76
2023/05/31 00:02:43;;;;;;;6.90;4.07;;;9.40;99.90;;;;;;4982093;28;20069;-77
2023/05/31 00:05:09;;;;;;;8.23;4.43;;;9.40;99.90;;;;;;4963475;28;20031;-78
2023/05/31 00:07:34;;;;;;;8.77;4.47;;;9.30;99.90;;;;;;4973397;28;20171;-78
2023/05/31 00:10:00;;;;;;;9.63;5.40;;;9.40;99.90;;;;;;4981122;28;20101;-78
2023/05/31 00:12:26;;;;;;;7.13;4.40;;;9.30;99.90;;;;;;5012938;28;20046;-78
2023/05/31 00:14:52;;;;;;;7.43;4.55;;;9.30;99.90;;;;;;4995147;28;20046;-78
2023/05/31 00:17:17;;;;;;;7.70;5.00;;;9.30;99.90;;;;;;5011375;28;20041;-77
2023/05/31 00:19:43;;;;;;;8.75;4.80;;;9.30;99.90;;;;;;4997800;28;20084;-77
2023/05/31 00:22:10;;;;;;;10.98;4.72;;;9.30;99.90;;;;;;4996177;28;20136;-77
2023/05/31 00:24:36;;;;;;;8.50;5.05;;;9.30;99.90;;;;;;4995656;28;20172;-78
2023/05/31 00:27:02;;;;;;;8.43;4.38;;;9.20;99.90;;;;;;4962016;28;20129;-77
2023/05/31 00:29:29;;;;;;;9.10;4.85;;;9.20;99.90;;;;;;5023848;28;20101;-77
2023/05/31 00:31:55;;;;;;;8.98;5.00;;;9.20;99.90;;;;;;4998632;28;20069;-77
2023/05/31 00:34:21;;;;;;;11.32;5.22;;;9.20;99.90;;;;;;5027647;28;20129;-77
2023/05/31 00:36:47;;;;;;;10.98;5.38;;;9.10;99.90;;;;;;4982432;28;20240;-77
2023/05/31 00:39:12;;;;;;;10.32;5.88;;;9.10;99.90;;;;;;5010658;28;20884;-77
2023/05/31 00:41:38;;;;;;;7.60;5.68;;;9.10;99.90;;;;;;4993227;28;20580;-77
2023/05/31 00:44:04;;;;;;;10.70;5.72;;;9.10;99.90;;;;;;4998569;28;20045;-77
2023/05/31 00:46:35;;;;;;;9.93;5.75;;;9.10;99.90;;;;;;4993916;28;20097;-77
2023/05/31 00:49:02;;;;;;;13.52;5.60;;;9.00;99.90;;;;;;5008410;28;20077;-77
2023/05/31 00:51:30;;;;;;;10.38;6.18;;;9.10;99.90;;;;;;4990124;28;20037;-77
2023/05/31 00:53:57;;;;;;;9.27;5.85;;;9.10;99.90;;;;;;5010108;28;20045;-77
2023/05/31 00:56:23;;;;;;;13.00;6.20;;;9.10;99.90;;;;;;4998130;28;20120;-77
2023/05/31 00:58:52;;;;;;;12.77;6.18;;;9.10;99.90;;;;;;5007235;28;20088;-77
2023/05/31 01:01:18;;;;;;;10.15;5.28;;;9.00;99.90;;;;;;5011805;28;20037;-77
2023/05/31 01:03:44;;;;;;;10.60;5.72;;;9.00;99.90;;;;;;4992179;28;20045;-77
2023/05/31 01:06:10;;;;;;;10.00;5.72;;;9.00;99.90;;;;;;5027226;28;20069;-77
2023/05/31 01:08:36;;;;;;;11.30;5.45;;;9.00;99.90;;;;;;5006543;28;20057;-77
2023/05/31 01:11:21;;;;;;;14.20;6.10;;;9.00;99.90;;;;;;5024626;28;20109;-77
2023/05/31 01:13:58;;;;;;;9.38;5.47;;;9.00;99.90;;;;;;4984206;28;20057;-77
2023/05/31 01:16:41;;;;;;;10.68;6.22;;;9.00;99.90;;;;;;5001778;28;20477;-77
2023/05/31 01:19:12;;;;;;;11.00;6.22;;;9.00;99.90;;;;;;5010192;28;20044;-77
2023/05/31 01:21:59;;;;;;;10.27;6.45;;;9.00;99.90;;;;;;4997387;28;20176;-77
2023/05/31 01:24:34;;;;;;;11.32;5.90;;;9.00;99.90;;;;;;5000360;28;20100;-77
2023/05/31 01:27:02;;;;;;;12.38;6.43;;;9.00;99.90;;;;;;4980314;28;20046;-77
2023/05/31 01:29:30;;;;;;;11.63;5.78;;;9.00;99.90;;;;;;4992039;28;20041;-77
2023/05/31 01:31:59;;;;;;;12.40;6.13;;;8.90;99.90;;;;;;4966522;28;20133;-77
2023/05/31 01:34:25;;;;;;;10.38;6.18;;;9.00;99.90;;;;;;5012696;28;20034;-77
2023/05/31 01:36:50;;;;;;;15.93;6.95;;;8.90;99.90;;;;;;4973271;28;20236;-77
2023/05/31 01:39:17;;;;;;;11.57;5.50;;;8.90;99.90;;;;;;4987575;28;20052;-77
2023/05/31 01:41:45;;;;;;;13.88;6.40;;;8.90;99.90;;;;;;4984250;28;20046;-77
2023/05/31 01:44:13;;;;;;;11.10;5.75;;;8.90;99.90;;;;;;5012966;28;20046;-77
2023/05/31 01:46:41;;;;;;;12.68;6.13;;;8.90;99.90;;;;;;5008860;28;20085;-77
2023/05/31 01:49:07;;;;;;;17.02;6.55;;;8.90;99.90;;;;;;4976204;28;20045;-77
2023/05/31 01:51:36;;;;;;;13.95;6.03;;;8.90;99.90;;;;;;4986473;28;20042;-77
2023/05/31 01:54:03;;;;;;;10.52;6.00;;;8.80;99.90;;;;;;4984633;28;20035;-77
2023/05/31 01:56:31;;;;;;;9.60;5.78;;;8.80;99.90;;;;;;4979152;28;20075;-77
2023/05/31 01:58:58;;;;;;;11.45;5.95;;;8.80;99.90;;;;;;4972012;28;20080;-77
2023/05/31 02:01:24;;;;;;;10.32;5.40;;;8.70;99.90;;;;;;4978644;28;20093;-77
2023/05/31 02:03:53;;;;;;;12.77;6.00;;;8.70;99.90;;;;;;4995481;28;20046;-77
2023/05/31 02:06:19;;;;;;;12.07;5.93;;;8.70;99.90;;;;;;4976843;28;20048;-78
2023/05/31 02:08:45;;;;;;;13.18;6.95;;;8.70;99.90;;;;;;4985855;28;20128;-78
2023/05/31 02:11:11;;;;;;;11.25;6.05;;;8.70;99.90;;;;;;4974435;28;20134;-77
2023/05/31 02:13:36;;;;;;;11.20;6.00;;;8.70;99.90;;;;;;5009003;28;20507;-78
2023/05/31 02:16:05;;;;;;;14.85;6.55;;;8.70;99.90;;;;;;4974361;28;20034;-77
2023/05/31 02:18:32;;;;;;;12.63;6.97;;;8.70;99.90;;;;;;4972574;28;20042;-77
2023/05/31 02:20:58;;;;;;;12.85;6.28;;;8.70;99.90;;;;;;4985860;28;20172;-77
2023/05/31 02:23:23;;;;;;;12.52;6.30;;;8.60;99.90;;;;;;4992129;28;20070;-77
2023/05/31 02:25:50;;;;;;;9.55;5.82;;;8.60;99.90;;;;;;4990105;28;20121;-77
2023/05/31 02:28:16;;;;;;;16.20;6.00;;;8.50;99.90;;;;;;4972871;28;20038;-77
2023/05/31 02:30:56;;;;;;;16.45;5.88;;;8.50;99.90;;;;;;4998809;28;20100;-77
2023/05/31 02:33:22;;;;;;;13.93;6.85;;;8.50;99.90;;;;;;4980136;28;20034;-77
2023/05/31 02:35:49;;;;;;;13.93;6.97;;;8.50;99.90;;;;;;4968005;28;20096;-77
2023/05/31 02:38:15;;;;;;;12.40;6.35;;;8.50;99.90;;;;;;4988017;28;20041;-77
2023/05/31 02:40:40;;;;;;;16.73;7.53;;;8.50;99.90;;;;;;4999224;28;20041;-77
2023/05/31 02:43:06;;;;;;;12.85;6.15;;;8.50;99.90;;;;;;4987904;28;20038;-77
2023/05/31 02:45:31;;;;;;;11.25;5.70;;;8.50;99.90;;;;;;4990913;28;20041;-77
2023/05/31 02:48:01;;;;;;;13.65;6.13;;;8.50;99.90;;;;;;4997248;28;20085;-77
2023/05/31 02:50:27;;;;;;;15.85;6.80;;;8.50;99.90;;;;;;4974784;28;20038;-77
2023/05/31 02:52:53;;;;;;;14.82;6.43;;;8.50;99.90;;;;;;4969980;28;20484;-78
2023/05/31 02:55:18;;;;;;;17.35;6.40;;;8.50;99.90;;;;;;4961029;28;20082;-77
2023/05/31 02:57:44;;;;;;;11.70;6.53;;;8.50;99.90;;;;;;4973745;28;20042;-77
2023/05/31 03:00:11;;;;;;;14.18;5.90;;;8.50;99.90;;;;;;4978505;28;20376;-77
2023/05/31 03:02:38;;;;;;;16.45;7.68;;;8.40;99.90;;;;;;4976527;28;20046;-77
2023/05/31 03:05:05;;;;;;;18.90;7.25;;;8.40;99.90;;;;;;4974374;28;20618;-77
2023/05/31 03:07:32;;;;;;;13.30;6.88;;;8.40;99.90;;;;;;4976772;28;20656;-78
2023/05/31 03:09:57;;;;;;;19.95;7.03;;;8.40;99.90;;;;;;4980771;28;20042;-78
2023/05/31 03:12:23;;;;;;;17.60;7.00;;;8.40;99.90;;;;;;4995460;28;20049;-78
2023/05/31 03:14:49;;;;;;;14.07;6.90;;;8.30;99.90;;;;;;4990868;28;20138;-78
2023/05/31 03:17:15;;;;;;;13.43;6.47;;;8.40;99.90;;;;;;4976338;28;20066;-78
2023/05/31 03:19:40;;;;;;;13.57;6.60;;;8.30;99.90;;;;;;4980801;28;20064;-78
2023/05/31 03:22:06;;;;;;;12.35;6.72;;;8.30;99.90;;;;;;4987894;28;20038;-78
2023/05/31 03:24:32;;;;;;;13.38;7.05;;;8.30;99.90;;;;;;4967523;28;20034;-77
2023/05/31 03:26:57;;;;;;;15.60;6.70;;;8.30;99.90;;;;;;4978365;28;20502;-77
2023/05/31 03:29:23;;;;;;;17.48;6.68;;;8.30;99.90;;;;;;4974729;28;20061;-77
2023/05/31 03:31:49;;;;;;;16.35;6.45;;;8.30;99.90;;;;;;4988908;28;20406;-77
2023/05/31 03:34:15;;;;;;;11.73;6.18;;;8.30;99.90;;;;;;4979153;28;20081;-78
2023/05/31 03:36:41;;;;;;;13.48;6.60;;;8.30;99.90;;;;;;4990083;28;20034;-77
2023/05/31 03:39:07;;;;;;;16.05;6.75;;;8.30;99.90;;;;;;4959055;28;20038;-78
2023/05/31 03:41:32;;;;;;;15.80;6.60;;;8.30;99.90;;;;;;4992126;28;20073;-77
2023/05/31 03:43:58;;;;;;;14.65;7.35;;;8.30;99.90;;;;;;4987423;28;20037;-77
2023/05/31 03:46:24;;;;;;;15.98;6.72;;;8.20;99.90;;;;;;4940820;28;20030;-77
2023/05/31 03:48:50;;;;;;;18.05;7.03;;;8.30;99.90;;;;;;4985232;28;20045;-77
2023/05/31 03:51:16;;;;;;;15.75;6.97;;;8.20;99.90;;;;;;5002135;28;20041;-77
2023/05/31 03:53:42;;;;;;;17.80;8.48;;;8.30;99.90;;;;;;5006079;28;20057;-77
2023/05/31 03:56:08;;;;;;;17.85;6.80;;;8.20;99.90;;;;;;4976683;28;20190;-77
2023/05/31 03:58:33;;;;;;;15.60;6.65;;;8.30;99.90;;;;;;4995765;28;20046;-78
2023/05/31 04:00:59;;;;;;;15.30;7.22;;;8.30;99.90;;;;;;4968256;28;20050;-78
2023/05/31 04:03:25;;;;;;;20.25;7.95;;;8.30;99.90;;;;;;5022279;28;20498;-77
2023/05/31 04:05:50;;;;;;;21.30;8.10;;;8.30;99.90;;;;;;4997820;28;20459;-78
2023/05/31 04:08:16;;;;;;;18.65;7.63;;;8.30;99.90;;;;;;4994736;28;20034;-77
2023/05/31 04:10:42;;;;;;;18.23;8.10;;;8.30;99.90;;;;;;4987812;28;20058;-77
2023/05/31 04:13:08;;;;;;;21.77;8.40;;;8.30;99.90;;;;;;4962231;28;20053;-77
2023/05/31 04:15:35;;;;;;;18.50;7.60;;;8.30;99.90;;;;;;5013698;28;20042;-77
2023/05/31 04:18:01;;;;;;;19.20;7.55;;;8.30;99.90;;;;;;4945885;28;20048;-77
2023/05/31 04:20:27;;;;;;;18.27;8.27;;;8.40;99.90;;;;;;4994162;28;20042;-77
2023/05/31 04:22:53;;;;;;;27.23;8.38;;;8.40;99.90;;;;;;4987697;28;20466;-77
2023/05/31 04:25:19;;;;;;;16.23;7.53;;;8.40;99.90;;;;;;4994013;28;20042;-77
2023/05/31 04:27:47;;;;;;;20.40;8.15;;;8.40;99.90;;;;;;4937776;28;20598;-77
2023/05/31 04:30:13;;;;;;;17.20;8.40;;;8.50;99.90;;;;;;4972461;28;20380;-77
2023/05/31 04:32:40;;;;;;;16.23;7.80;;;8.50;99.90;;;;;;4960801;28;20034;-77
2023/05/31 04:35:08;;;;;;;19.27;8.95;;;8.60;99.90;;;;;;4994378;28;20124;-77
2023/05/31 04:37:35;;;;;;;21.75;8.90;;;8.60;99.90;;;;;;4999947;28;20475;-77
2023/05/31 04:40:04;;;;;;;22.75;7.95;;;8.60;99.90;;;;;;4979220;28;20049;-77
2023/05/31 04:42:30;;;;;;;20.85;8.13;;;8.60;99.90;;;;;;4980620;28;20048;-77
2023/05/31 04:45:01;;;;;;;25.58;9.00;;;8.70;99.90;;;;;;4992103;28;20042;-77
2023/05/31 04:47:30;;;;;;;20.50;8.77;;;8.70;99.90;;;;;;4970012;28;20120;-77
2023/05/31 04:49:57;;;;;;;19.55;9.23;;;8.80;99.90;;;;;;4954737;28;20042;-77
2023/05/31 04:52:30;;;;;;;27.08;8.95;;;8.80;99.90;;;;;;4993211;28;20597;-77
2023/05/31 04:54:57;;;;;;;19.17;8.23;;;8.90;99.90;;;;;;4955197;28;20170;-77
2023/05/31 04:57:24;;;;;;;22.92;9.60;;;9.00;99.90;;;;;;4991204;28;20399;-77
2023/05/31 04:59:50;;;;;;;24.23;9.00;;;9.10;99.90;;;;;;4969918;28;20562;-77
2023/05/31 05:02:20;;;;;;;19.30;7.68;;;9.10;99.90;;;;;;4961503;28;20040;-77
2023/05/31 05:04:47;;;;;;;21.10;8.45;;;9.20;99.90;;;;;;4975666;28;20054;-78
2023/05/31 05:07:14;;;;;;;22.38;9.25;;;9.30;99.90;;;;;;5001321;28;20041;-77
2023/05/31 05:09:39;;;;;;;17.83;8.63;;;9.40;99.90;;;;;;4997660;28;20068;-77
2023/05/31 05:12:06;;;;;;;22.58;9.10;;;9.50;99.90;;;;;;5005848;28;20615;-77
2023/05/31 05:14:32;;;;;;;18.73;9.27;;;9.50;99.90;;;;;;5016216;28;20049;-78
2023/05/31 05:16:57;;;;;;;19.42;8.52;;;9.60;99.90;;;;;;4980259;28;20067;-77
2023/05/31 05:19:23;;;;;;;20.67;9.00;;;9.70;99.90;;;;;;5011047;28;20029;-77
2023/05/31 05:21:49;;;;;;;21.95;8.27;;;9.80;99.90;;;;;;4985744;28;20486;-77
2023/05/31 05:24:15;;;;;;;25.90;9.05;;;9.80;99.90;;;;;;4996015;28;20037;-77
2023/05/31 05:26:41;;;;;;;25.23;8.93;;;9.90;99.90;;;;;;5019648;28;20041;-77
2023/05/31 05:29:06;;;;;;;19.20;8.93;;;10.00;99.90;;;;;;4995308;28;20044;-77
2023/05/31 05:31:33;;;;;;;21.52;9.70;;;10.10;99.90;;;;;;4979340;28;20049;-77
2023/05/31 05:33:59;;;;;;;23.08;9.65;;;10.20;99.90;;;;;;5002197;28;20096;-77
2023/05/31 05:36:25;;;;;;;20.35;9.98;;;10.20;99.90;;;;;;5013076;28;20038;-77
2023/05/31 05:38:50;;;;;;;20.92;9.40;;;10.30;99.90;;;;;;5007094;28;20422;-77
2023/05/31 05:41:16;;;;;;;25.17;10.18;;;10.40;99.90;;;;;;4986925;28;20491;-77
2023/05/31 05:43:42;;;;;;;24.42;10.38;;;10.50;99.90;;;;;;5006475;28;20088;-78
2023/05/31 05:46:08;;;;;;;19.95;9.35;;;10.60;99.90;;;;;;5010878;28;20107;-77
2023/05/31 05:48:33;;;;;;;18.70;8.50;;;10.70;99.90;;;;;;4980060;28;20398;-77
2023/05/31 05:51:00;;;;;;;19.60;9.52;;;10.70;99.90;;;;;;5018290;28;20106;-77
2023/05/31 05:53:26;;;;;;;19.63;9.30;;;10.90;99.90;;;;;;5011402;28;20033;-77
2023/05/31 05:55:52;;;;;;;19.08;8.80;;;11.00;99.90;;;;;;5012654;28;20144;-77
2023/05/31 05:58:18;;;;;;;19.13;9.48;;;11.10;99.90;;;;;;5011330;28;20690;-77
2023/05/31 06:00:48;;;;;;;28.92;9.90;;;11.20;99.90;;;;;;5016207;28;20036;-76
2023/05/31 06:03:17;;;;;;;21.55;10.18;;;11.30;99.90;;;;;;5024458;28;20049;-76
2023/05/31 06:05:43;;;;;;;23.42;9.57;;;11.30;99.90;;;;;;5005294;28;20128;-77
2023/05/31 06:08:10;;;;;;;20.10;9.07;;;11.50;99.90;;;;;;5010790;28;20052;-77
2023/05/31 06:10:36;;;;;;;21.70;9.73;;;11.50;99.90;;;;;;4974304;28;20550;-77
2023/05/31 06:13:02;;;;;;;18.70;9.18;;;11.70;99.90;;;;;;4996698;28;20049;-77
2023/05/31 06:15:28;;;;;;;19.75;9.05;;;11.70;99.90;;;;;;5036289;28;20576;-78
2023/05/31 06:17:54;;;;;;;16.25;9.07;;;11.80;99.90;;;;;;5011174;28;20030;-77
2023/05/31 06:20:21;;;;;;;17.70;8.90;;;11.90;99.90;;;;;;4991955;28;20046;-77
2023/05/31 06:22:47;;;;;;;18.55;8.50;;;12.00;99.90;;;;;;4992907;28;20045;-77
2023/05/31 06:25:13;;;;;;;16.42;8.88;;;12.10;99.90;;;;;;4992720;28;20632;-77
2023/05/31 06:27:39;;;;;;;18.58;9.60;;;12.20;99.90;;;;;;4992054;28;20124;-77
2023/05/31 06:30:06;;;;;;;16.23;8.38;;;12.30;99.90;;;;;;5016468;28;20045;-78
2023/05/31 06:32:31;;;;;;;19.25;8.75;;;12.40;99.90;;;;;;5001443;28;20094;-77
2023/05/31 06:34:57;;;;;;;18.52;8.23;;;12.50;99.90;;;;;;5012783;28;20478;-78
2023/05/31 06:37:23;;;;;;;25.38;9.52;;;12.60;99.90;;;;;;4968255;28;20041;-78
2023/05/31 06:39:49;;;;;;;17.25;7.82;;;12.70;99.90;;;;;;5013195;28;20104;-81
2023/05/31 06:42:15;;;;;;;19.77;7.43;;;12.90;99.90;;;;;;5018861;28;20029;-81
2023/05/31 06:44:42;;;;;;;21.13;8.23;;;13.00;99.90;;;;;;4999606;28;20046;-81
2023/05/31 06:47:08;;;;;;;35.67;8.90;;;13.10;99.90;;;;;;5008296;28;20088;-78
2023/05/31 06:49:34;;;;;;;21.75;9.45;;;13.30;99.90;;;;;;4981246;28;20080;-78
2023/05/31 06:52:00;;;;;;;15.85;7.50;;;13.40;99.90;;;;;;5009614;28;20596;-77
2023/05/31 06:54:27;;;;;;;19.55;8.82;;;13.50;99.90;;;;;;5007765;28;20117;-81
2023/05/31 06:56:53;;;;;;;16.48;7.95;;;13.70;99.90;;;;;;5010346;28;20050;-80
2023/05/31 06:59:18;;;;;;;14.88;8.10;;;13.80;99.90;;;;;;4975953;28;20527;-80
2023/05/31 07:01:44;;;;;;;25.65;9.02;;;13.90;99.90;;;;;;4976363;28;20169;-80
2023/05/31 07:04:10;;;;;;;15.32;7.00;;;14.10;99.90;;;;;;5008360;28;20069;-80
2023/05/31 07:06:37;;;;;;;16.00;7.82;;;14.20;99.90;;;;;;5008945;28;20069;-80
2023/05/31 07:09:04;;;;;;;13.73;7.57;;;14.30;99.90;;;;;;4992700;28;20068;-80
2023/05/31 07:11:30;;;;;;;13.77;7.28;;;14.40;99.90;;;;;;4997513;28;20109;-81
2023/05/31 07:14:01;;;;;;;20.60;7.65;;;14.60;99.90;;;;;;4999452;28;20050;-81
2023/05/31 07:16:27;;;;;;;17.80;7.32;;;14.80;99.90;;;;;;4976564;28;20549;-81
2023/05/31 07:18:53;;;;;;;15.02;7.35;;;14.90;99.90;;;;;;4985757;28;20164;-83
2023/05/31 07:21:19;;;;;;;14.77;7.10;;;15.00;99.90;;;;;;4992837;28;20155;-82
2023/05/31 07:23:45;;;;;;;14.05;6.57;;;15.10;99.90;;;;;;4999694;28;20601;-83
2023/05/31 07:26:11;;;;;;;13.52;6.20;;;15.30;99.90;;;;;;4976425;28;20042;-82
2023/05/31 07:28:37;;;;;;;17.38;6.68;;;15.40;99.90;;;;;;4995353;28;20041;-82
2023/05/31 07:31:03;;;;;;;12.50;6.93;;;15.60;99.90;;;;;;4967462;28;20042;-82
2023/05/31 07:33:29;;;;;;;13.82;6.43;;;15.70;99.90;;;;;;5009291;28;20105;-83
2023/05/31 07:35:54;;;;;;;11.20;6.65;;;15.90;99.90;;;;;;4972881;28;20044;-83
2023/05/31 07:38:20;;;;;;;12.77;5.82;;;16.00;99.90;;;;;;4968178;28;20050;-80
2023/05/31 07:40:46;;;;;;;15.43;6.00;;;16.10;99.90;;;;;;4954811;28;20039;-80
2023/05/31 07:43:11;;;;;;;11.50;5.95;;;16.30;99.90;;;;;;4968566;28;20050;-80
2023/05/31 07:45:39;;;;;;;13.10;5.95;;;16.40;99.90;;;;;;5000406;28;20042;-80
2023/05/31 07:48:05;;;;;;;12.73;5.97;;;16.50;99.90;;;;;;4975992;28;20104;-80
2023/05/31 07:50:30;;;;;;;13.18;6.07;;;16.60;99.90;;;;;;4993901;28;20491;-80
2023/05/31 07:52:56;;;;;;;13.02;5.85;;;16.70;99.90;;;;;;4959439;28;20069;-81
2023/05/31 07:55:22;;;;;;;10.98;5.15;;;16.80;99.90;;;;;;4959440;28;20092;-80
2023/05/31 07:57:48;;;;;;;11.57;6.20;;;17.00;99.90;;;;;;5019607;28;20124;-80
2023/05/31 08:00:14;;;;;;;9.00;6.60;;;17.00;99.90;;;;;;4986370;28;20113;-80
2023/05/31 08:02:42;;;;;;;12.68;5.57;;;17.10;99.90;;;;;;4978348;28;20045;-80
2023/05/31 08:05:09;;;;;;;10.88;5.75;;;17.30;99.90;;;;;;4970825;28;20041;-80
2023/05/31 08:07:35;;;;;;;10.52;5.78;;;17.30;99.90;;;;;;5026571;28;20069;-80
2023/05/31 08:10:01;;;;;;;11.02;5.45;;;17.50;99.90;;;;;;4968654;28;20049;-80
2023/05/31 08:12:27;;;;;;;16.55;5.70;;;17.60;99.90;;;;;;4997502;28;20046;-80
2023/05/31 08:14:53;;;;;;;81.57;9.55;;;17.80;99.90;;;;;;4993838;28;20040;-80
2023/05/31 08:17:18;;;;;;;12.23;5.22;;;18.00;99.90;;;;;;5014049;28;20045;-80
2023/05/31 08:19:44;;;;;;;8.98;5.25;;;18.30;99.90;;;;;;4981183;28;20079;-80
2023/05/31 08:22:10;;;;;;;11.73;4.43;;;18.70;99.90;;;;;;5012513;28;20069;-80
2023/05/31 08:24:36;;;;;;;10.25;4.60;;;18.90;99.90;;;;;;4999640;28;20033;-81
2023/05/31 08:27:01;;;;;;;8.73;4.88;;;19.00;99.90;;;;;;4973807;28;20111;-80
2023/05/31 08:29:28;;;;;;;13.77;5.32;;;19.00;99.90;;;;;;5012843;28;20030;-81
2023/05/31 08:31:53;;;;;;;10.85;4.32;;;19.10;99.90;;;;;;4999248;28;20498;-81
2023/05/31 08:34:19;;;;;;;11.00;4.50;;;19.10;99.90;;;;;;5006480;28;20068;-80
2023/05/31 08:36:47;;;;;;;9.80;3.97;;;19.20;99.90;;;;;;5017775;28;20065;-81
2023/05/31 08:39:13;;;;;;;7.00;3.55;;;19.30;99.90;;;;;;5013605;28;20068;-81
2023/05/31 08:42:06;;;;;;;6.70;3.60;;;19.50;99.90;;;;;;4999102;28;20140;-82
2023/05/31 08:44:32;;;;;;;7.78;3.22;;;19.50;99.90;;;;;;5017729;28;20469;-81
2023/05/31 08:47:04;;;;;;;35.33;5.75;;;19.60;99.90;;;;;;5029200;28;20606;-82
2023/05/31 08:49:33;;;;;;;15.52;5.00;;;19.70;99.90;;;;;;5009680;28;20100;-82
2023/05/31 08:52:00;;;;;;;11.98;4.78;;;19.80;99.90;;;;;;4977356;28;20065;-81
2023/05/31 08:54:26;;;;;;;7.88;3.50;;;19.90;99.90;;;;;;5007781;28;20534;-81
2023/05/31 08:56:53;;;;;;;11.90;3.50;;;20.00;99.90;;;;;;4995768;28;20041;-80
2023/05/31 08:59:19;;;;;;;40.10;7.78;;;20.10;99.90;;;;;;4996211;28;20061;-81
2023/05/31 09:01:47;;;;;;;16.30;4.90;;;20.30;99.70;;;;;;4978322;28;20038;-81
2023/05/31 09:04:14;;;;;;;12.73;4.95;;;20.30;99.90;;;;;;4955051;28;20108;-80
2023/05/31 09:06:40;;;;;;;18.73;5.65;;;20.40;99.90;;;;;;4985242;28;20080;-79
2023/05/31 09:09:08;;;;;;;13.90;4.50;;;20.60;99.90;;;;;;4983011;28;20073;-78
2023/05/31 09:11:40;;;;;;;20.67;5.65;;;20.80;99.90;;;;;;5012580;28;20049;-79
2023/05/31 09:14:08;;;;;;;9.52;4.20;;;20.90;99.80;;;;;;4980402;28;20133;-79
2023/05/31 09:16:35;;;;;;;58.90;6.20;;;21.00;98.20;;;;;;4992925;28;20081;-79
2023/05/31 09:19:02;;;;;;;26.77;4.95;;;21.10;98.90;;;;;;4990648;28;20526;-79
2023/05/31 09:21:29;;;;;;;26.70;4.88;;;21.10;96.90;;;;;;4974338;28;20534;-79
2023/05/31 09:23:56;;;;;;;26.58;5.22;;;21.20;98.10;;;;;;4992647;28;20041;-79
2023/05/31 09:26:23;;;;;;;9.88;3.83;;;21.30;97.80;;;;;;4981496;28;20085;-80
2023/05/31 09:28:52;;;;;;;12.02;4.03;;;21.40;97.40;;;;;;4972042;28;20072;-79
2023/05/31 09:31:19;;;;;;;24.10;5.10;;;21.30;96.60;;;;;;5000192;28;20069;-79
2023/05/31 09:33:50;;;;;;;10.30;3.95;;;21.40;96.80;;;;;;4968163;28;20070;-78
2023/05/31 09:36:25;;;;;;;8.13;3.63;;;21.50;97.10;;;;;;4994932;28;20030;-78
2023/05/31 09:38:57;;;;;;;8.95;4.20;;;21.70;97.10;;;;;;4991543;28;20124;-78
2023/05/31 09:41:23;;;;;;;5.32;3.72;;;21.90;97.20;;;;;;4976550;28;20050;-78
2023/05/31 09:43:49;;;;;;;30.58;5.13;;;22.00;96.40;;;;;;4978151;28;20068;-78
2023/05/31 09:46:18;;;;;;;11.07;3.92;;;22.00;95.90;;;;;;4975143;28;20038;-78
2023/05/31 09:48:45;;;;;;;8.32;3.92;;;22.10;95.50;;;;;;5007937;28;20046;-78
2023/05/31 09:51:13;;;;;;;9.68;4.10;;;22.10;96.10;;;;;;5003922;28;20120;-78
2023/05/31 09:53:45;;;;;;;7.78;3.78;;;22.30;95.30;;;;;;4983417;28;20069;-78
2023/05/31 09:56:16;;;;;;;;;;;22.40;95.60;;;;;;4992774;28;20087;-78
2023/05/31 09:58:42;;;;;;;7.93;3.97;;;22.30;93.90;;;;;;5010270;28;19929;-78
2023/05/31 10:01:09;;;;;;;9.35;3.95;;;22.20;94.80;;;;;;4979927;28;20038;-78
2023/05/31 10:03:36;;;;;;;13.35;4.07;;;22.40;95.40;;;;;;4981336;28;20128;-78
2023/05/31 10:06:05;;;;;;;8.52;4.15;;;22.50;95.00;;;;;;5007400;28;20702;-78
2023/05/31 10:08:31;;;;;;;10.38;4.53;;;22.70;95.10;;;;;;4974616;28;20050;-78
2023/05/31 10:11:02;;;;;;;6.45;3.83;;;22.70;94.50;;;;;;4977499;28;20041;-78
2023/05/31 10:13:28;;;;;;;8.18;4.70;;;22.70;94.00;;;;;;4991195;28;20398;-78
2023/05/31 10:15:56;;;;;;;18.65;4.80;;;22.70;94.30;;;;;;4990880;28;20038;-78
2023/05/31 10:18:27;;;;;;;10.63;4.20;;;22.80;94.30;;;;;;5009633;28;20041;-78
2023/05/31 10:20:59;;;;;;;20.80;4.47;;;22.90;94.30;;;;;;5008121;28;20185;-78
2023/05/31 10:23:26;;;;;;;13.63;3.80;;;23.00;94.50;;;;;;4990210;28;20099;-78
2023/05/31 10:26:10;;;;;;;7.68;4.10;;;23.10;94.20;;;;;;4991738;28;20045;-78
2023/05/31 10:28:43;;;;;;;21.38;4.90;;;23.30;93.30;;;;;;4976430;28;20049;-78
2023/05/31 10:31:11;;;;;;;7.97;4.30;;;23.30;93.70;;;;;;4989808;28;20240;-68
2023/05/31 10:33:42;;;;;;;6.68;3.90;;;23.30;93.30;;;;;;5006645;28;20188;-68
2023/05/31 10:36:09;;;;;;;8.60;4.10;;;23.50;93.50;;;;;;5003701;28;20419;-68
2023/05/31 10:38:52;;;;;;;11.00;4.93;;;23.60;93.20;;;;;;5005424;28;20041;-68
2023/05/31 10:41:23;;;;;;;6.95;4.05;;;23.50;92.30;;;;;;4988115;28;20045;-68
2023/05/31 10:43:57;;;;;;;7.03;3.80;;;23.60;92.60;;;;;;5006740;28;20033;-68
2023/05/31 10:46:29;;;;;;;10.15;4.15;;;23.80;92.20;;;;;;4986565;28;20141;-68
2023/05/31 10:48:59;;;;;;;7.93;4.30;;;23.80;92.70;;;;;;4998843;28;20049;-68
2023/05/31 10:51:37;;;;;;;11.85;5.45;;;23.80;92.50;;;;;;4989125;28;20120;-68
2023/05/31 10:54:03;;;;;;;9.35;4.97;;;23.70;91.50;;;;;;4990730;28;20042;-68
2023/05/31 10:56:29;;;;;;;6.35;3.83;;;23.80;92.00;;;;;;4960039;28;20100;-68
2023/05/31 10:58:55;;;;;;;8.32;3.95;;;23.90;91.70;;;;;;4991302;28;20053;-68
2023/05/31 11:01:21;;;;;;;13.00;4.30;;;23.90;91.70;;;;;;4973706;28;20164;-68
2023/05/31 11:03:50;;;;;;;10.40;4.63;;;23.90;91.80;;;;;;4974163;28;20056;-68
2023/05/31 11:06:22;;;;;;;6.57;3.35;;;24.00;91.70;;;;;;4991205;28;20038;-68
2023/05/31 11:09:10;;;;;;;9.18;4.32;;;24.20;92.20;;;;;;4973248;28;20104;-68
2023/05/31 11:11:37;;;;;;;7.50;3.90;;;24.30;90.60;;;;;;4979466;28;20045;-68
2023/05/31 11:14:07;;;;;;;10.35;4.30;;;24.30;91.50;;;;;;5007631;28;20125;-67
2023/05/31 11:16:49;;;;;;;8.38;3.95;;;24.20;90.60;;;;;;5010857;28;20422;-67
2023/05/31 11:19:16;;;;;;;25.50;5.43;;;24.30;90.70;;;;;;4959173;28;20049;-67
2023/05/31 11:21:49;;;;;;;7.30;3.92;;;24.40;90.80;;;;;;4986165;28;20104;-67
2023/05/31 11:24:36;;;;;;;10.27;4.45;;;24.40;90.50;;;;;;4990442;28;20045;-67
2023/05/31 11:27:02;;;;;;;9.70;4.57;;;24.40;89.40;;;;;;4989669;28;20517;-67
2023/05/31 11:29:46;;;;;;;74.28;8.25;;;24.40;90.40;;;;;;5016717;28;20192;-68
2023/05/31 11:32:13;;;;;;;11.82;4.80;;;24.50;90.30;;;;;;4987564;28;20050;-69
2023/05/31 11:34:59;;;;;;;8.93;4.43;;;24.50;90.20;;;;;;5014137;28;20447;-68
2023/05/31 11:37:30;;;;;;;9.45;4.45;;;24.40;88.10;;;;;;5009022;28;20103;-68
2023/05/31 11:40:00;;;;;;;10.30;4.03;;;24.40;90.50;;;;;;5008146;28;20037;-69
2023/05/31 11:42:30;;;;;;;7.68;4.70;;;24.40;90.30;;;;;;4999334;28;20029;-69
2023/05/31 11:44:57;;;;;;;10.57;4.78;;;24.30;90.40;;;;;;4997874;28;20042;-68
2023/05/31 11:47:26;;;;;;;9.30;4.60;;;24.30;90.40;;;;;;4989409;28;20033;-68
2023/05/31 11:49:52;;;;;;;10.38;5.00;;;24.30;91.20;;;;;;4970767;28;20129;-68
2023/05/31 11:52:20;;;;;;;8.85;4.93;;;24.10;91.40;;;;;;5005190;28;20045;-67
2023/05/31 11:54:48;;;;;;;9.63;4.40;;;23.90;91.00;;;;;;4997429;28;20037;-67
2023/05/31 11:57:14;;;;;;;7.97;4.60;;;24.00;91.30;;;;;;4992059;28;20124;-68
2023/05/31 11:59:41;;;;;;;9.70;4.63;;;24.00;91.20;;;;;;5011727;28;20049;-67
2023/05/31 12:02:08;;;;;;;7.47;4.50;;;23.90;91.20;;;;;;5009919;28;20454;-68
2023/05/31 12:04:39;;;;;;;10.00;4.40;;;24.00;91.00;;;;;;4987425;28;20465;-67
2023/05/31 12:07:25;;;;;;;8.57;4.43;;;24.10;91.40;;;;;;4987856;28;20079;-67
2023/05/31 12:09:51;;;;;;;8.48;4.75;;;24.20;91.00;;;;;;5010608;28;20070;-69
2023/05/31 12:12:17;;;;;;;11.95;4.47;;;24.20;91.30;;;;;;4989888;28;20769;-68
2023/05/31 12:14:54;;;;;;;12.50;4.97;;;24.30;91.60;;;;;;4996516;28;20049;-67
2023/05/31 12:17:20;;;;;;;7.85;5.03;;;24.30;91.40;;;;;;5005611;28;20048;-68
2023/05/31 12:19:50;;;;;;;10.30;4.90;;;24.20;91.70;;;;;;4993972;28;20073;-68
2023/05/31 12:22:16;;;;;;;11.88;5.45;;;24.20;91.40;;;;;;4989550;28;20097;-67
2023/05/31 12:24:49;;;;;;;9.88;5.13;;;24.00;91.80;;;;;;4990876;28;20282;-68
2023/05/31 12:27:16;;;;;;;10.88;5.65;;;24.10;92.20;;;;;;4989958;28;20042;-68
2023/05/31 12:29:42;;;;;;;12.23;5.22;;;24.00;91.60;;;;;;4985704;28;20529;-67
2023/05/31 12:32:09;;;;;;;14.93;5.88;;;24.10;91.20;;;;;;4982943;28;20551;-66
2023/05/31 12:34:37;;;;;;;8.45;5.07;;;24.20;91.60;;;;;;4988217;28;20136;-67
2023/05/31 12:37:08;;;;;;;12.38;5.05;;;24.30;91.70;;;;;;5008504;28;20045;-67
2023/05/31 12:39:34;;;;;;;12.18;5.45;;;24.50;91.70;;;;;;5006750;28;20072;-67
2023/05/31 12:42:01;;;;;;;7.70;4.97;;;24.40;91.40;;;;;;4973228;28;20054;-67
2023/05/31 12:44:28;;;;;;;9.38;4.63;;;24.40;91.30;;;;;;4987827;28;20077;-66